createdAt,value
2022-12-26T00:02:09.026Z,12.60
2022-12-26T00:04:54.820Z,12.60
2022-12-26T00:07:40.091Z,12.40
2022-12-26T00:10:25.488Z,12.20
2022-12-26T00:13:37.362Z,12.30
2022-12-26T00:16:18.953Z,12.40
2022-12-26T00:19:04.949Z,12.60
2022-12-26T00:21:50.485Z,12.60
2022-12-26T00:24:35.817Z,12.60
2022-12-26T00:27:21.323Z,12.60
2022-12-26T00:30:07.742Z,12.60
2022-12-26T00:32:53.734Z,12.50
2022-12-26T00:35:39.575Z,12.60
2022-12-26T00:38:25.048Z,12.40
2022-12-26T00:41:12.206Z,12.20
2022-12-26T00:43:58.368Z,12.40
2022-12-26T00:46:43.836Z,12.40
2022-12-26T00:49:29.890Z,12.30
2022-12-26T00:52:35.632Z,12.20
2022-12-26T00:55:21.038Z,12.20
2022-12-26T00:58:06.557Z,12.00
2022-12-26T01:00:52.654Z,12.10
2022-12-26T01:03:38.372Z,12.30
2022-12-26T01:06:24.194Z,12.40
2022-12-26T01:09:12.182Z,12.50
2022-12-26T01:11:57.545Z,12.00
2022-12-26T01:14:43.077Z,11.50
2022-12-26T01:17:28.867Z,11.90
2022-12-26T01:20:14.605Z,12.30
2022-12-26T01:23:00.395Z,12.40
2022-12-26T01:26:17.360Z,12.40
2022-12-26T01:28:53.031Z,12.40
2022-12-26T01:31:38.717Z,12.10
2022-12-26T01:34:24.172Z,12.20
2022-12-26T01:37:13.316Z,11.50
2022-12-26T01:39:58.885Z,11.00
2022-12-26T01:42:44.311Z,11.20
2022-12-26T01:45:31.946Z,11.70
2022-12-26T01:48:24.357Z,11.70
2022-12-26T01:51:10.135Z,11.90
2022-12-26T01:54:40.857Z,12.20
2022-12-26T01:57:06.768Z,12.20
2022-12-26T01:59:53.480Z,12.00
2022-12-26T02:02:58.526Z,12.10
2022-12-26T02:05:44.504Z,12.20
2022-12-26T02:08:34.917Z,12.00
2022-12-26T02:11:41.124Z,11.80
2022-12-26T02:14:27.293Z,11.70
2022-12-26T02:17:13.287Z,11.90
2022-12-26T02:20:10.852Z,11.30
2022-12-26T02:23:22.033Z,12.00
2022-12-26T02:26:41.200Z,12.00
2022-12-26T02:30:06.092Z,11.80
2022-12-26T02:33:15.619Z,12.00
2022-12-26T02:36:23.778Z,12.20
2022-12-26T02:39:47.002Z,12.30
2022-12-26T02:42:36.122Z,12.30
2022-12-26T02:46:13.674Z,12.40
2022-12-26T02:49:15.354Z,12.40
2022-12-26T02:52:35.009Z,12.40
2022-12-26T02:55:44.077Z,12.20
2022-12-26T02:59:05.647Z,11.90
2022-12-26T03:02:15.717Z,11.70
2022-12-26T03:05:21.860Z,11.50
2022-12-26T03:08:32.372Z,11.50
2022-12-26T03:11:50.688Z,11.60
2022-12-26T03:14:50.755Z,11.10
2022-12-26T03:18:01.389Z,11.50
2022-12-26T03:20:47.767Z,11.80
2022-12-26T03:23:34.829Z,11.60
2022-12-26T03:26:43.710Z,11.80
2022-12-26T03:29:47.580Z,11.60
2022-12-26T03:32:43.168Z,11.70
2022-12-26T03:35:33.373Z,11.20
2022-12-26T03:38:23.994Z,10.80
2022-12-26T03:42:08.816Z,11.00
2022-12-26T03:45:19.090Z,11.20
2022-12-26T03:48:41.588Z,11.70
2022-12-26T03:51:58.828Z,11.60
2022-12-26T03:55:27.973Z,11.40
2022-12-26T03:58:44.993Z,11.90
2022-12-26T04:01:51.719Z,11.90
2022-12-26T04:04:58.593Z,12.10
2022-12-26T04:08:13.414Z,12.10
2022-12-26T04:11:22.029Z,12.20
2022-12-26T04:14:35.117Z,12.10
2022-12-26T04:17:57.456Z,12.00
2022-12-26T04:20:57.987Z,12.10
2022-12-26T04:24:05.259Z,12.00
2022-12-26T04:27:15.050Z,12.10
2022-12-26T04:30:19.157Z,12.20
2022-12-26T04:33:30.430Z,12.20
2022-12-26T04:36:47.002Z,12.10
2022-12-26T04:39:53.279Z,11.60
2022-12-26T04:42:59.269Z,11.90
2022-12-26T04:45:44.987Z,12.10
2022-12-26T04:48:49.342Z,12.10
2022-12-26T04:51:35.598Z,12.10
2022-12-26T04:54:21.347Z,12.10
2022-12-26T04:57:08.206Z,12.20
2022-12-26T04:59:53.817Z,12.10
2022-12-26T05:02:57.826Z,12.20
2022-12-26T05:06:15.382Z,12.10
2022-12-26T05:09:19.536Z,12.10
2022-12-26T05:12:07.731Z,12.00
2022-12-26T05:14:54.155Z,12.00
2022-12-26T05:17:58.321Z,11.90
2022-12-26T05:20:46.551Z,12.00
2022-12-26T05:23:50.703Z,12.00
2022-12-26T05:26:55.294Z,12.10
2022-12-26T05:29:41.015Z,12.20
2022-12-26T05:32:44.887Z,12.00
2022-12-26T05:35:32.321Z,11.80
2022-12-26T05:38:17.942Z,12.00
2022-12-26T05:41:04.495Z,12.20
2022-12-26T05:43:50.240Z,12.20
2022-12-26T05:46:36.335Z,12.20
2022-12-26T05:49:22.321Z,12.20
2022-12-26T05:52:07.998Z,12.20
2022-12-26T05:54:53.573Z,12.20
2022-12-26T05:57:40.052Z,12.00
2022-12-26T06:00:25.731Z,12.00
2022-12-26T06:03:11.366Z,11.80
2022-12-26T06:05:57.730Z,12.00
2022-12-26T06:08:43.606Z,12.00
2022-12-26T06:11:29.427Z,12.00
2022-12-26T06:14:15.025Z,12.00
2022-12-26T06:17:00.959Z,12.00
2022-12-26T06:19:47.048Z,12.00
2022-12-26T06:22:32.972Z,12.00
2022-12-26T06:25:18.593Z,11.80
2022-12-26T06:28:04.656Z,11.70
2022-12-26T06:30:51.399Z,11.90
2022-12-26T06:33:37.333Z,11.50
2022-12-26T06:36:24.802Z,11.60
2022-12-26T06:39:10.312Z,11.70
2022-12-26T06:41:55.680Z,11.90
2022-12-26T06:44:42.020Z,12.10
2022-12-26T06:47:27.471Z,11.30
2022-12-26T06:50:13.007Z,10.80
2022-12-26T06:52:58.581Z,10.80
2022-12-26T06:55:43.933Z,11.10
2022-12-26T06:58:29.603Z,11.00
2022-12-26T07:01:17.961Z,10.90
2022-12-26T07:04:04.610Z,11.00
2022-12-26T07:06:50.232Z,11.50
2022-12-26T07:09:35.911Z,10.80
2022-12-26T07:12:22.004Z,10.70
2022-12-26T07:15:10.087Z,10.90
2022-12-26T07:17:56.044Z,10.60
2022-12-26T07:20:41.590Z,10.90
2022-12-26T07:23:27.245Z,11.30
2022-12-26T07:26:12.855Z,11.60
2022-12-26T07:28:59.450Z,11.50
2022-12-26T07:31:45.623Z,11.20
2022-12-26T07:34:32.225Z,11.10
2022-12-26T07:37:18.868Z,11.10
2022-12-26T07:40:05.152Z,11.10
2022-12-26T07:42:53.825Z,10.70
2022-12-26T07:45:45.320Z,10.70
2022-12-26T07:48:31.554Z,10.70
2022-12-26T07:51:17.405Z,11.00
2022-12-26T07:54:08.897Z,11.50
2022-12-26T07:57:15.159Z,11.70
2022-12-26T08:00:02.352Z,11.70
2022-12-26T08:03:02.838Z,12.10
2022-12-26T08:05:52.301Z,12.00
2022-12-26T08:08:38.419Z,11.90
2022-12-26T08:11:25.146Z,11.80
2022-12-26T08:14:12.563Z,11.20
2022-12-26T08:16:57.992Z,11.40
2022-12-26T08:19:43.475Z,11.20
2022-12-26T08:22:28.952Z,11.60
2022-12-26T08:25:16.806Z,12.10
2022-12-26T08:28:06.401Z,12.40
2022-12-26T08:30:52.206Z,12.40
2022-12-26T08:33:37.839Z,11.60
2022-12-26T08:36:23.703Z,11.40
2022-12-26T08:39:09.090Z,11.30
2022-12-26T08:41:54.589Z,11.50
2022-12-26T08:44:40.713Z,11.80
2022-12-26T08:47:27.504Z,12.30
2022-12-26T08:50:13.291Z,12.60
2022-12-26T08:52:59.237Z,12.70
2022-12-26T08:55:44.907Z,12.80
2022-12-26T08:58:30.604Z,13.00
2022-12-26T09:01:25.032Z,12.90
2022-12-26T09:04:11.300Z,12.70
2022-12-26T09:06:57.118Z,13.30
2022-12-26T09:09:42.695Z,13.40
2022-12-26T09:12:28.138Z,13.60
2022-12-26T09:15:13.601Z,13.90
2022-12-26T09:17:59.159Z,14.10
2022-12-26T09:20:44.576Z,14.30
2022-12-26T09:23:30.669Z,14.40
2022-12-26T09:26:20.954Z,14.20
2022-12-26T09:29:06.433Z,14.10
2022-12-26T09:31:54.957Z,14.10
2022-12-26T09:34:40.818Z,14.00
2022-12-26T09:37:27.957Z,13.70
2022-12-26T09:40:24.288Z,13.00
2022-12-26T09:43:49.894Z,12.80
2022-12-26T09:46:51.435Z,13.30
2022-12-26T09:49:55.525Z,12.90
2022-12-26T09:52:51.863Z,12.80
2022-12-26T09:55:59.835Z,12.00
2022-12-26T09:58:59.075Z,13.00
2022-12-26T10:01:44.867Z,13.90
2022-12-26T10:04:30.756Z,14.10
2022-12-26T10:07:22.951Z,13.50
2022-12-26T10:10:11.971Z,13.10
2022-12-26T10:13:16.916Z,13.40
2022-12-26T10:16:15.474Z,13.10
2022-12-26T10:19:32.261Z,12.30
2022-12-26T10:22:54.478Z,11.90
2022-12-26T10:26:01.457Z,12.40
2022-12-26T10:28:54.302Z,12.80
2022-12-26T10:31:48.316Z,13.40
2022-12-26T10:34:42.227Z,13.10
2022-12-26T10:37:35.618Z,12.80
2022-12-26T10:40:26.156Z,13.60
2022-12-26T10:43:21.008Z,13.20
2022-12-26T10:46:23.120Z,12.80
2022-12-26T10:49:12.144Z,12.90
2022-12-26T10:52:00.685Z,13.30
2022-12-26T10:54:51.675Z,12.70
2022-12-26T10:58:02.502Z,12.70
2022-12-26T11:00:48.329Z,12.90
2022-12-26T11:03:33.989Z,13.00
2022-12-26T11:06:27.916Z,13.50
2022-12-26T11:09:32.826Z,14.40
2022-12-26T11:12:42.934Z,13.70
2022-12-26T11:15:34.096Z,13.90
2022-12-26T11:18:38.198Z,14.20
2022-12-26T11:21:26.440Z,14.50
2022-12-26T11:24:19.827Z,13.10
2022-12-26T11:27:23.489Z,12.80
2022-12-26T11:30:21.083Z,12.70
2022-12-26T11:33:14.233Z,13.00
2022-12-26T11:36:00.635Z,13.00
2022-12-26T11:38:51.143Z,14.10
2022-12-26T11:41:40.317Z,14.50
2022-12-26T11:44:29.297Z,14.60
2022-12-26T11:47:17.844Z,13.90
2022-12-26T11:50:10.119Z,13.50
2022-12-26T11:52:55.821Z,14.20
2022-12-26T11:55:41.370Z,14.90
2022-12-26T11:58:30.711Z,14.80
2022-12-26T12:01:20.108Z,14.80
2022-12-26T12:04:05.841Z,15.00
2022-12-26T12:07:21.299Z,15.00
2022-12-26T12:10:38.659Z,15.00
2022-12-26T12:13:39.329Z,15.00
2022-12-26T12:17:18.858Z,14.90
2022-12-26T12:20:30.588Z,15.00
2022-12-26T12:23:39.076Z,14.70
2022-12-26T12:26:39.244Z,14.50
2022-12-26T12:29:58.977Z,14.60
2022-12-26T12:33:12.727Z,14.20
2022-12-26T12:36:01.519Z,14.20
2022-12-26T12:39:09.590Z,14.30
2022-12-26T12:42:17.427Z,14.00
2022-12-26T12:45:03.111Z,14.00
2022-12-26T12:48:11.677Z,14.00
2022-12-26T12:51:15.798Z,13.60
2022-12-26T12:54:42.917Z,13.20
2022-12-26T12:57:49.449Z,13.20
2022-12-26T13:00:49.069Z,13.50
2022-12-26T13:03:50.163Z,13.50
2022-12-26T13:06:42.108Z,13.70
2022-12-26T13:09:44.014Z,13.60
2022-12-26T13:12:36.070Z,13.50
2022-12-26T13:15:50.062Z,13.40
2022-12-26T13:18:39.602Z,13.10
2022-12-26T13:21:27.396Z,13.30
2022-12-26T13:24:26.218Z,13.10
2022-12-26T13:27:20.379Z,13.30
2022-12-26T13:30:15.520Z,13.40
2022-12-26T13:33:01.833Z,13.30
2022-12-26T13:35:57.812Z,13.30
2022-12-26T13:38:58.831Z,13.20
2022-12-26T13:42:10.954Z,13.40
2022-12-26T13:45:35.289Z,13.70
2022-12-26T13:48:29.555Z,13.70
2022-12-26T13:51:44.820Z,13.70
2022-12-26T13:54:30.829Z,13.90
2022-12-26T13:57:42.683Z,13.30
2022-12-26T14:00:45.476Z,13.50
2022-12-26T14:03:43.605Z,13.40
2022-12-26T14:06:44.536Z,13.70
2022-12-26T14:09:36.267Z,13.70
2022-12-26T14:12:40.938Z,13.70
2022-12-26T14:15:41.576Z,13.30
2022-12-26T14:18:53.354Z,13.50
2022-12-26T14:22:20.452Z,13.60
2022-12-26T14:25:10.496Z,13.70
2022-12-26T14:28:05.799Z,13.50
2022-12-26T14:31:22.270Z,13.40
2022-12-26T14:34:39.141Z,13.10
2022-12-26T14:37:46.639Z,13.10
2022-12-26T14:40:36.038Z,12.80
2022-12-26T14:43:28.009Z,13.00
2022-12-26T14:46:40.723Z,13.00
2022-12-26T14:49:35.400Z,13.10
2022-12-26T14:52:24.502Z,13.10
2022-12-26T14:55:46.998Z,13.40
2022-12-26T14:58:43.950Z,13.50
2022-12-26T15:01:32.773Z,13.30
2022-12-26T15:04:47.371Z,13.30
2022-12-26T15:07:33.136Z,12.80
2022-12-26T15:10:32.724Z,12.70
2022-12-26T15:13:37.324Z,12.70
2022-12-26T15:16:40.776Z,13.10
2022-12-26T15:20:04.156Z,13.10
2022-12-26T15:23:15.006Z,13.10
2022-12-26T15:26:34.211Z,12.90
2022-12-26T15:29:28.904Z,13.30
2022-12-26T15:32:36.098Z,13.00
2022-12-26T15:35:29.725Z,12.80
2022-12-26T15:38:26.015Z,12.50
2022-12-26T15:41:16.268Z,12.70
2022-12-26T15:44:39.732Z,13.00
2022-12-26T15:47:41.129Z,13.00
2022-12-26T15:50:52.303Z,13.20
2022-12-26T15:54:19.398Z,13.20
2022-12-26T15:57:40.398Z,13.20
2022-12-26T16:00:34.561Z,13.50
2022-12-26T16:03:39.528Z,13.30
2022-12-26T16:06:51.247Z,12.60
2022-12-26T16:09:43.090Z,12.50
2022-12-26T16:12:35.438Z,12.70
2022-12-26T16:15:24.972Z,12.80
2022-12-26T16:18:15.859Z,13.10
2022-12-26T16:21:25.522Z,12.80
2022-12-26T16:24:12.899Z,12.70
2022-12-26T16:27:03.621Z,12.80
2022-12-26T16:29:52.443Z,12.90
2022-12-26T16:32:41.707Z,13.00
2022-12-26T16:35:33.336Z,12.90
2022-12-26T16:38:28.854Z,12.80
2022-12-26T16:41:26.022Z,12.70
2022-12-26T16:44:44.504Z,12.60
2022-12-26T16:47:32.161Z,12.60
2022-12-26T16:50:22.979Z,12.70
2022-12-26T16:53:12.987Z,12.80
2022-12-26T16:56:26.820Z,12.80
2022-12-26T16:59:22.587Z,12.70
2022-12-26T17:02:16.327Z,12.80
2022-12-26T17:05:25.991Z,12.80
2022-12-26T17:08:15.026Z,12.90
2022-12-26T17:11:01.064Z,12.90
2022-12-26T17:13:53.868Z,12.70
2022-12-26T17:16:39.727Z,12.60
2022-12-26T17:19:29.702Z,12.40
2022-12-26T17:22:15.295Z,12.40
2022-12-26T17:25:30.686Z,12.40
2022-12-26T17:28:21.545Z,12.60
2022-12-26T17:31:19.265Z,12.40
2022-12-26T17:34:15.991Z,12.20
2022-12-26T17:37:19.088Z,12.00
2022-12-26T17:40:14.171Z,12.40
2022-12-26T17:43:37.525Z,12.30
2022-12-26T17:46:23.444Z,12.50
2022-12-26T17:49:10.221Z,12.60
2022-12-26T17:52:01.601Z,12.20
2022-12-26T17:54:49.304Z,11.70
2022-12-26T17:57:35.180Z,11.90
2022-12-26T18:00:24.567Z,12.40
2022-12-26T18:03:10.530Z,11.90
2022-12-26T18:05:56.522Z,11.90
2022-12-26T18:08:43.308Z,12.30
2022-12-26T18:11:28.967Z,12.40
2022-12-26T18:14:14.632Z,12.00
2022-12-26T18:17:01.381Z,12.20
2022-12-26T18:19:49.390Z,12.20
2022-12-26T18:22:35.197Z,12.30
2022-12-26T18:25:25.846Z,12.30
2022-12-26T18:28:16.757Z,12.50
2022-12-26T18:31:02.300Z,12.60
2022-12-26T18:33:48.725Z,12.30
2022-12-26T18:36:36.685Z,12.30
2022-12-26T18:39:22.267Z,12.10
2022-12-26T18:42:13.075Z,12.00
2022-12-26T18:44:58.903Z,12.00
2022-12-26T18:47:44.600Z,11.90
2022-12-26T18:50:32.016Z,11.80
2022-12-26T18:53:17.734Z,11.80
2022-12-26T18:56:03.640Z,11.70
2022-12-26T18:58:55.779Z,12.10
2022-12-26T19:01:42.803Z,12.30
2022-12-26T19:04:28.409Z,12.30
2022-12-26T19:07:14.196Z,11.80
2022-12-26T19:10:01.013Z,11.90
2022-12-26T19:12:46.599Z,12.20
2022-12-26T19:15:34.361Z,11.90
2022-12-26T19:18:19.985Z,11.70
2022-12-26T19:21:10.395Z,11.80
2022-12-26T19:23:56.496Z,11.90
2022-12-26T19:26:42.510Z,11.80
2022-12-26T19:29:28.312Z,12.00
2022-12-26T19:32:14.242Z,12.10
2022-12-26T19:35:00.213Z,12.10
2022-12-26T19:37:46.093Z,11.90
2022-12-26T19:40:31.752Z,11.90
2022-12-26T19:43:17.558Z,11.70
2022-12-26T19:46:06.949Z,11.70
2022-12-26T19:48:53.261Z,11.60
2022-12-26T19:51:39.114Z,11.60
2022-12-26T19:54:24.783Z,11.60
2022-12-26T19:57:10.402Z,11.70
2022-12-26T19:59:56.283Z,11.50
2022-12-26T20:02:41.975Z,11.40
2022-12-26T20:05:27.816Z,11.40
2022-12-26T20:08:13.550Z,11.60
2022-12-26T20:11:05.253Z,11.70
2022-12-26T20:13:51.304Z,11.90
2022-12-26T20:17:04.383Z,11.60
2022-12-26T20:19:44.034Z,11.60
2022-12-26T20:22:29.538Z,11.70
2022-12-26T20:25:15.497Z,11.50
2022-12-26T20:28:01.445Z,10.90
2022-12-26T20:30:58.186Z,11.00
2022-12-26T20:33:45.742Z,10.90
2022-12-26T20:36:36.891Z,11.10
2022-12-26T20:39:23.510Z,11.30
2022-12-26T20:42:08.946Z,11.40
2022-12-26T20:44:55.479Z,11.40
2022-12-26T20:47:41.165Z,11.40
2022-12-26T20:50:26.973Z,11.40
2022-12-26T20:53:12.526Z,11.40
2022-12-26T20:55:58.121Z,11.30
2022-12-26T20:58:44.441Z,11.30
2022-12-26T21:01:29.813Z,11.20
2022-12-26T21:04:21.407Z,11.10
2022-12-26T21:07:07.222Z,11.00
2022-12-26T21:09:52.713Z,10.90
2022-12-26T21:12:38.176Z,11.00
2022-12-26T21:15:23.952Z,11.00
2022-12-26T21:18:09.858Z,11.20
2022-12-26T21:20:55.458Z,11.20
2022-12-26T21:23:41.821Z,11.20
2022-12-26T21:26:27.977Z,11.10
2022-12-26T21:29:17.225Z,11.20
2022-12-26T21:32:04.393Z,11.10
2022-12-26T21:34:49.832Z,11.00
2022-12-26T21:37:51.810Z,10.90
2022-12-26T21:40:37.363Z,10.80
2022-12-26T21:43:30.196Z,10.70
2022-12-26T21:46:18.729Z,10.80
2022-12-26T21:49:04.421Z,11.00
2022-12-26T21:51:50.206Z,11.00
2022-12-26T21:54:54.161Z,10.90
2022-12-26T21:57:40.034Z,10.90
2022-12-26T22:00:25.827Z,10.80
2022-12-26T22:03:30.154Z,10.70
2022-12-26T22:06:16.442Z,10.80
2022-12-26T22:09:03.845Z,10.80
2022-12-26T22:12:07.648Z,10.90
2022-12-26T22:14:53.145Z,11.00
2022-12-26T22:17:38.523Z,11.00
2022-12-26T22:20:24.374Z,11.00
2022-12-26T22:23:10.676Z,11.10
2022-12-26T22:25:56.818Z,11.20
2022-12-26T22:28:43.419Z,11.30
2022-12-26T22:31:33.199Z,11.40
2022-12-26T22:34:19.094Z,11.60
2022-12-26T22:37:05.471Z,11.70
2022-12-26T22:39:50.959Z,11.80
2022-12-26T22:42:36.460Z,11.70
2022-12-26T22:45:21.888Z,11.80
2022-12-26T22:48:07.628Z,11.80
2022-12-26T22:50:54.712Z,11.90
2022-12-26T22:53:40.193Z,12.00
2022-12-26T22:56:26.305Z,12.00
2022-12-26T22:59:27.460Z,12.50
2022-12-26T23:02:35.377Z,11.80
2022-12-26T23:05:21.256Z,12.10
2022-12-26T23:08:07.837Z,11.70
2022-12-26T23:10:56.796Z,11.80
2022-12-26T23:13:43.625Z,11.80
2022-12-26T23:16:38.128Z,11.90
2022-12-26T23:20:05.202Z,11.40
2022-12-26T23:22:50.774Z,11.30
2022-12-26T23:25:37.772Z,11.50
2022-12-26T23:28:42.222Z,11.60
2022-12-26T23:31:28.027Z,11.80
2022-12-26T23:34:14.454Z,12.00
2022-12-26T23:37:00.264Z,11.90
2022-12-26T23:39:45.619Z,11.90
2022-12-26T23:42:31.201Z,11.10
2022-12-26T23:45:17.133Z,11.40
2022-12-26T23:48:02.990Z,11.10
2022-12-26T23:50:50.097Z,11.50
2022-12-26T23:53:36.316Z,11.70
2022-12-26T23:56:22.160Z,11.80
2022-12-26T23:59:07.602Z,11.60
